Sunday, December 8, 2019, 3:36 PM EST
Back to Local

KPBG, Plattsburgh International Airport

Location: Plattsburgh, NY, United States Lat: 44.65
Local Time: 3:36 PM EST (20:36 GMT) Lon: -73.467
Time Zone: US/Eastern Elev: 239 ft

Show me the last for .
Show Decoded

2019-12-08 14:53 METAR KPBG 081953Z AUTO 17012KT 10SM OVC100 M02/M08 A3020 RMK AO2 SLP230
                 T10221083 =
2019-12-08 13:53 METAR KPBG 081853Z AUTO 17011KT 10SM BKN080 OVC090 M03/M08 A3024 RMK AO2 SLP245
                 T10281078 =
2019-12-08 12:53 METAR KPBG 081753Z AUTO 16012G18KT 10SM OVC085 M03/M08 A3027 RMK AO2 SLP255
                 T10331078 11033 21133 56033 =
2019-12-08 11:53 METAR KPBG 081653Z AUTO 16013KT 10SM OVC100 M04/M08 A3030 RMK AO2 SLP264
                 T10391083 =
2019-12-08 10:53 METAR KPBG 081553Z AUTO 16009KT 10SM SCT120 M04/M09 A3032 RMK AO2 SLP272
                 T10441089 =
2019-12-08 09:53 METAR KPBG 081453Z AUTO 18003KT 10SM CLR M07/M11 A3037 RMK AO2 SLP289 T10671111
                 56017 =
2019-12-08 08:53 METAR KPBG 081353Z AUTO 20004KT 10SM CLR M09/M13 A3038 RMK AO2 SLP293 T10891128
                 =
2019-12-08 07:53 METAR KPBG 081253Z AUTO 20003KT 10SM CLR M12/M14 A3040 RMK AO2 SLP299 T11221144
                 =
2019-12-08 06:53 METAR KPBG 081153Z AUTO 23005KT 10SM CLR M13/M16 A3042 RMK AO2 SLP307 I6000
                 T11281156 11111 21156 58008 =
2019-12-08 05:53 METAR KPBG 081053Z AUTO 00000KT 10SM CLR M15/M17 A3043 RMK AO2 SLP310 I1000
                 T11501167 =
2019-12-08 04:53 METAR KPBG 080953Z AUTO 00000KT 10SM CLR M14/M16 A3044 RMK AO2 SLP313 I1000
                 T11441161 =
2019-12-08 03:53 METAR KPBG 080853Z AUTO 00000KT 10SM CLR M14/M16 A3044 RMK AO2 SLP314 I1000
                 I3000 T11441161 50001 =
2019-12-08 02:53 METAR KPBG 080753Z AUTO 00000KT 10SM CLR M15/M16 A3045 RMK AO2 SLP317 T11501156
                 =
2019-12-08 01:53 METAR KPBG 080653Z AUTO 24005KT 10SM CLR M13/M15 A3045 RMK AO2 SLP317 T11331150
                 =
2019-12-08 00:53 METAR KPBG 080553Z AUTO 00000KT 10SM CLR M14/M15 A3044 RMK AO2 SLP313 I1000
                 I6000 T11391150 11089 21139 58001 =
2019-12-07 23:53 METAR KPBG 080453Z AUTO 00000KT 10SM CLR M13/M14 A3045 RMK AO2 SLP316 I1000
                 T11281144 410331139 =
2019-12-07 22:53 METAR KPBG 080353Z AUTO 00000KT 10SM CLR M12/M14 A3046 RMK AO2 SLP318 I1000
                 T11221139 =
2019-12-07 21:53 METAR KPBG 080253Z AUTO 00000KT 10SM CLR M11/M13 A3044 RMK AO2 SLP313 I1000
                 I3000 T11111128 51007 =
2019-12-07 20:53 METAR KPBG 080153Z AUTO 00000KT 10SM CLR M11/M12 A3044 RMK AO2 SLP313 T11061122
                 =
2019-12-07 19:53 METAR KPBG 080053Z AUTO 00000KT 10SM CLR M09/M11 A3043 RMK AO2 SLP309 T10891111
                 =
2019-12-07 18:53 METAR KPBG 072353Z AUTO 00000KT 10SM CLR M09/M12 A3042 RMK AO2 SLP306 T10941117
                 11033 21094 51017 =
2019-12-07 17:53 METAR KPBG 072253Z AUTO 00000KT 10SM CLR M07/M11 A3041 RMK AO2 SLP302 T10721106
                 =
2019-12-07 16:53 METAR KPBG 072153Z AUTO 29004KT 10SM FEW035 M05/M11 A3039 RMK AO2 SLP296
                 T10501111 =
2019-12-07 15:53 METAR KPBG 072053Z AUTO 30003KT 10SM BKN039 BKN046 M04/M09 A3037 RMK AO2 SLP289
                 T10391094 53014 =

Support USWX by starting your Amazon purchase here.